sensor_id;sensor_type;location;lat;lon;timestamp;pressure;altitude;pressure_sealevel;temperature;humidity
51297;BME280;37380;45.186;9.792;2023-04-01T00:00:38;99940.22;;;9.94;100.00
51297;BME280;37380;45.186;9.792;2023-04-01T00:03:05;99898.44;;;9.58;100.00
51297;BME280;37380;45.186;9.792;2023-04-01T00:05:32;99898.75;;;9.70;100.00
51297;BME280;37380;45.186;9.792;2023-04-01T00:07:59;99951.88;;;10.07;100.00
51297;BME280;37380;45.186;9.792;2023-04-01T00:10:27;99945.69;;;10.04;100.00
51297;BME280;37380;45.186;9.792;2023-04-01T00:12:54;99956.78;;;9.95;100.00
51297;BME280;37380;45.186;9.792;2023-04-01T00:15:21;99914.25;;;9.64;100.00
51297;BME280;37380;45.186;9.792;2023-04-01T00:17:48;99929.75;;;9.93;100.00
51297;BME280;37380;45.186;9.792;2023-04-01T00:20:16;99888.16;;;9.64;100.00
51297;BME280;37380;45.186;9.792;2023-04-01T00:22:43;99917.38;;;9.86;100.00
51297;BME280;37380;45.186;9.792;2023-04-01T00:25:10;99864.25;;;9.46;100.00
51297;BME280;37380;45.186;9.792;2023-04-01T00:27:37;99882.00;;;9.61;100.00
51297;BME280;37380;45.186;9.792;2023-04-01T00:30:05;99887.38;;;9.68;100.00
51297;BME280;37380;45.186;9.792;2023-04-01T00:32:33;99797.63;;;9.24;100.00
51297;BME280;37380;45.186;9.792;2023-04-01T00:35:00;99873.41;;;9.65;100.00
51297;BME280;37380;45.186;9.792;2023-04-01T00:37:27;99894.81;;;9.86;100.00
51297;BME280;37380;45.186;9.792;2023-04-01T00:39:55;99934.47;;;10.08;100.00
51297;BME280;37380;45.186;9.792;2023-04-01T00:42:22;99927.66;;;10.14;100.00
51297;BME280;37380;45.186;9.792;2023-04-01T00:44:52;99914.38;;;10.04;100.00
51297;BME280;37380;45.186;9.792;2023-04-01T00:47:21;99871.56;;;9.61;100.00
51297;BME280;37380;45.186;9.792;2023-04-01T00:49:50;99942.88;;;10.31;100.00
51297;BME280;37380;45.186;9.792;2023-04-01T00:52:21;99897.53;;;9.91;100.00
51297;BME280;37380;45.186;9.792;2023-04-01T00:54:58;99954.63;;;10.15;100.00
51297;BME280;37380;45.186;9.792;2023-04-01T00:58:03;99932.53;;;9.99;100.00
51297;BME280;37380;45.186;9.792;2023-04-01T01:00:59;99902.28;;;9.72;100.00
51297;BME280;37380;45.186;9.792;2023-04-01T01:03:28;99846.72;;;9.40;100.00
51297;BME280;37380;45.186;9.792;2023-04-01T01:11:40;99922.94;;;9.63;100.00
51297;BME280;37380;45.186;9.792;2023-04-01T01:16:54;99955.13;;;9.65;100.00
51297;BME280;37380;45.186;9.792;2023-04-01T01:27:41;99935.63;;;9.51;100.00
51297;BME280;37380;45.186;9.792;2023-04-01T01:30:30;99939.69;;;9.40;100.00
51297;BME280;37380;45.186;9.792;2023-04-01T01:35:52;99936.88;;;9.32;100.00
51297;BME280;37380;45.186;9.792;2023-04-01T01:38:27;99928.75;;;9.21;100.00
51297;BME280;37380;45.186;9.792;2023-04-01T01:41:00;99838.53;;;8.63;100.00
51297;BME280;37380;45.186;9.792;2023-04-01T01:43:41;99925.09;;;9.15;100.00
51297;BME280;37380;45.186;9.792;2023-04-01T01:46:14;99820.13;;;8.55;100.00
51297;BME280;37380;45.186;9.792;2023-04-01T01:48:44;99840.31;;;8.64;100.00
51297;BME280;37380;45.186;9.792;2023-04-01T01:51:12;99821.63;;;8.47;100.00
51297;BME280;37380;45.186;9.792;2023-04-01T01:53:46;99921.56;;;9.13;100.00
51297;BME280;37380;45.186;9.792;2023-04-01T01:56:41;99927.00;;;9.20;100.00
51297;BME280;37380;45.186;9.792;2023-04-01T01:59:11;99903.22;;;9.08;100.00
51297;BME280;37380;45.186;9.792;2023-04-01T02:01:42;99932.53;;;9.33;100.00
51297;BME280;37380;45.186;9.792;2023-04-01T02:04:13;99834.44;;;8.71;100.00
51297;BME280;37380;45.186;9.792;2023-04-01T02:06:53;99848.25;;;8.69;100.00
51297;BME280;37380;45.186;9.792;2023-04-01T02:09:22;99899.97;;;8.87;100.00
51297;BME280;37380;45.186;9.792;2023-04-01T02:11:52;99835.34;;;8.42;100.00
51297;BME280;37380;45.186;9.792;2023-04-01T02:14:25;99838.88;;;8.44;100.00
51297;BME280;37380;45.186;9.792;2023-04-01T02:19:43;99933.19;;;8.94;100.00
51297;BME280;37380;45.186;9.792;2023-04-01T02:22:16;99931.41;;;8.93;100.00
51297;BME280;37380;45.186;9.792;2023-04-01T02:24:45;99876.50;;;8.55;100.00
51297;BME280;37380;45.186;9.792;2023-04-01T02:27:12;99895.19;;;8.70;100.00
51297;BME280;37380;45.186;9.792;2023-04-01T02:29:40;99866.75;;;8.48;100.00
51297;BME280;37380;45.186;9.792;2023-04-01T02:32:08;99792.91;;;8.17;100.00
51297;BME280;37380;45.186;9.792;2023-04-01T02:34:36;99949.19;;;9.06;100.00
51297;BME280;37380;45.186;9.792;2023-04-01T02:37:04;99943.34;;;9.15;100.00
51297;BME280;37380;45.186;9.792;2023-04-01T02:39:31;99881.47;;;8.76;100.00
51297;BME280;37380;45.186;9.792;2023-04-01T02:41:58;99846.94;;;8.53;100.00
51297;BME280;37380;45.186;9.792;2023-04-01T02:44:25;99775.63;;;8.18;100.00
51297;BME280;37380;45.186;9.792;2023-04-01T02:46:52;99862.75;;;8.59;100.00
51297;BME280;37380;45.186;9.792;2023-04-01T02:49:19;99896.31;;;8.80;100.00
51297;BME280;37380;45.186;9.792;2023-04-01T02:51:46;99954.91;;;9.24;100.00
51297;BME280;37380;45.186;9.792;2023-04-01T02:54:21;99872.56;;;8.69;100.00
51297;BME280;37380;45.186;9.792;2023-04-01T02:57:22;99944.72;;;9.02;100.00
51297;BME280;37380;45.186;9.792;2023-04-01T03:00:23;99928.63;;;8.87;100.00
51297;BME280;37380;45.186;9.792;2023-04-01T03:03:24;99936.19;;;8.77;100.00
51297;BME280;37380;45.186;9.792;2023-04-01T03:06:18;99959.25;;;8.94;100.00
51297;BME280;37380;45.186;9.792;2023-04-01T03:08:45;99952.06;;;8.87;100.00
51297;BME280;37380;45.186;9.792;2023-04-01T03:11:20;99919.59;;;8.74;100.00
51297;BME280;37380;45.186;9.792;2023-04-01T03:14:21;99933.03;;;8.59;100.00
51297;BME280;37380;45.186;9.792;2023-04-01T03:16:48;99907.53;;;8.47;100.00
51297;BME280;37380;45.186;9.792;2023-04-01T03:19:15;99978.22;;;8.90;100.00
51297;BME280;37380;45.186;9.792;2023-04-01T03:21:42;99934.06;;;8.64;100.00
51297;BME280;37380;45.186;9.792;2023-04-01T03:24:09;99935.16;;;8.72;100.00
51297;BME280;37380;45.186;9.792;2023-04-01T03:26:36;99965.16;;;8.88;100.00
51297;BME280;37380;45.186;9.792;2023-04-01T03:29:03;99952.50;;;8.72;100.00
51297;BME280;37380;45.186;9.792;2023-04-01T03:31:31;99932.06;;;8.55;100.00
51297;BME280;37380;45.186;9.792;2023-04-01T03:33:58;99972.56;;;8.74;100.00
51297;BME280;37380;45.186;9.792;2023-04-01T03:36:26;99977.16;;;8.83;100.00
51297;BME280;37380;45.186;9.792;2023-04-01T03:38:53;99950.34;;;8.57;100.00
51297;BME280;37380;45.186;9.792;2023-04-01T03:41:31;99985.59;;;8.74;100.00
51297;BME280;37380;45.186;9.792;2023-04-01T03:43:59;99926.44;;;8.42;100.00
51297;BME280;37380;45.186;9.792;2023-04-01T03:46:26;99912.06;;;8.27;100.00
51297;BME280;37380;45.186;9.792;2023-04-01T03:48:53;99898.50;;;8.09;100.00
51297;BME280;37380;45.186;9.792;2023-04-01T03:51:20;99992.16;;;8.61;100.00
51297;BME280;37380;45.186;9.792;2023-04-01T03:53:54;99983.34;;;8.58;100.00
51297;BME280;37380;45.186;9.792;2023-04-01T03:56:56;99984.88;;;8.51;100.00
51297;BME280;37380;45.186;9.792;2023-04-01T03:59:50;99950.09;;;8.22;100.00
51297;BME280;37380;45.186;9.792;2023-04-01T04:02:17;99945.06;;;8.28;100.00
51297;BME280;37380;45.186;9.792;2023-04-01T04:04:45;99983.84;;;8.46;100.00
51297;BME280;37380;45.186;9.792;2023-04-01T04:07:13;99928.88;;;8.10;100.00
51297;BME280;37380;45.186;9.792;2023-04-01T04:09:58;99992.19;;;8.37;100.00
51297;BME280;37380;45.186;9.792;2023-04-01T04:12:25;99976.78;;;8.16;100.00
51297;BME280;37380;45.186;9.792;2023-04-01T04:14:52;99920.06;;;7.79;100.00
51297;BME280;37380;45.186;9.792;2023-04-01T04:17:20;99926.22;;;7.81;100.00
51297;BME280;37380;45.186;9.792;2023-04-01T04:19:47;99875.94;;;7.55;100.00
51297;BME280;37380;45.186;9.792;2023-04-01T04:22:14;99886.44;;;7.58;100.00
51297;BME280;37380;45.186;9.792;2023-04-01T04:24:41;99892.88;;;7.44;100.00
51297;BME280;37380;45.186;9.792;2023-04-01T04:27:11;99946.88;;;7.77;100.00
51297;BME280;37380;45.186;9.792;2023-04-01T04:29:51;99982.47;;;7.79;100.00
51297;BME280;37380;45.186;9.792;2023-04-01T04:32:18;99987.16;;;7.89;100.00
51297;BME280;37380;45.186;9.792;2023-04-01T04:34:45;99946.41;;;7.63;100.00
51297;BME280;37380;45.186;9.792;2023-04-01T04:37:12;99930.13;;;7.43;100.00
51297;BME280;37380;45.186;9.792;2023-04-01T04:39:39;99917.78;;;7.37;100.00
51297;BME280;37380;45.186;9.792;2023-04-01T04:42:06;99884.16;;;7.16;100.00
51297;BME280;37380;45.186;9.792;2023-04-01T04:44:33;99941.47;;;7.45;100.00
51297;BME280;37380;45.186;9.792;2023-04-01T04:47:01;100022.75;;;7.90;100.00
51297;BME280;37380;45.186;9.792;2023-04-01T04:49:28;100028.72;;;7.88;100.00
51297;BME280;37380;45.186;9.792;2023-04-01T04:51:55;100000.38;;;7.70;100.00
51297;BME280;37380;45.186;9.792;2023-04-01T04:54:32;100038.44;;;7.93;100.00
51297;BME280;37380;45.186;9.792;2023-04-01T04:57:26;100031.44;;;7.91;100.00
51297;BME280;37380;45.186;9.792;2023-04-01T05:00:27;100005.97;;;7.82;100.00
51297;BME280;37380;45.186;9.792;2023-04-01T05:03:36;99980.78;;;7.56;100.00
51297;BME280;37380;45.186;9.792;2023-04-01T05:06:19;100016.81;;;7.69;100.00
51297;BME280;37380;45.186;9.792;2023-04-01T05:08:49;100030.09;;;7.77;100.00
51297;BME280;37380;45.186;9.792;2023-04-01T05:11:18;100003.69;;;7.66;100.00
51297;BME280;37380;45.186;9.792;2023-04-01T05:13:46;100039.19;;;7.89;100.00
51297;BME280;37380;45.186;9.792;2023-04-01T05:16:17;100033.91;;;7.88;100.00
51297;BME280;37380;45.186;9.792;2023-04-01T05:18:46;99988.53;;;7.78;100.00
51297;BME280;37380;45.186;9.792;2023-04-01T05:21:14;100057.06;;;8.55;100.00
51297;BME280;37380;45.186;9.792;2023-04-01T05:23:42;100055.91;;;8.47;100.00
51297;BME280;37380;45.186;9.792;2023-04-01T05:26:12;99918.41;;;7.56;100.00
51297;BME280;37380;45.186;9.792;2023-04-01T05:28:40;100033.56;;;8.28;100.00
51297;BME280;37380;45.186;9.792;2023-04-01T05:31:07;99891.66;;;8.39;100.00
51297;BME280;37380;45.186;9.792;2023-04-01T05:33:41;99999.22;;;9.56;100.00
51297;BME280;37380;45.186;9.792;2023-04-01T05:36:13;99980.31;;;10.30;100.00
51297;BME280;37380;45.186;9.792;2023-04-01T05:38:41;99954.28;;;10.34;100.00
51297;BME280;37380;45.186;9.792;2023-04-01T05:41:11;99994.97;;;11.00;100.00
51297;BME280;37380;45.186;9.792;2023-04-01T05:43:43;100036.25;;;10.08;100.00
51297;BME280;37380;45.186;9.792;2023-04-01T05:46:32;100042.84;;;9.93;100.00
51297;BME280;37380;45.186;9.792;2023-04-01T05:49:20;99990.78;;;9.03;100.00
51297;BME280;37380;45.186;9.792;2023-04-01T05:51:49;100044.53;;;8.72;100.00
51297;BME280;37380;45.186;9.792;2023-04-01T05:54:23;99993.97;;;8.64;100.00
51297;BME280;37380;45.186;9.792;2023-04-01T05:57:24;100068.84;;;9.28;100.00
51297;BME280;37380;45.186;9.792;2023-04-01T06:00:18;100071.31;;;8.95;100.00
51297;BME280;37380;45.186;9.792;2023-04-01T06:02:47;100008.84;;;8.68;100.00
51297;BME280;37380;45.186;9.792;2023-04-01T06:05:26;100065.56;;;9.34;100.00
51297;BME280;37380;45.186;9.792;2023-04-01T06:08:10;99988.91;;;8.42;100.00
51297;BME280;37380;45.186;9.792;2023-04-01T06:13:20;100077.31;;;9.21;100.00
51297;BME280;37380;45.186;9.792;2023-04-01T06:16:10;100057.31;;;9.20;100.00
51297;BME280;37380;45.186;9.792;2023-04-01T06:21:35;100084.75;;;9.07;100.00
51297;BME280;37380;45.186;9.792;2023-04-01T06:34:14;100005.25;;;11.81;100.00
51297;BME280;37380;45.186;9.792;2023-04-01T06:37:40;100019.09;;;11.75;100.00
51297;BME280;37380;45.186;9.792;2023-04-01T06:42:54;100093.75;;;11.97;100.00
51297;BME280;37380;45.186;9.792;2023-04-01T06:46:02;100087.44;;;12.87;100.00
51297;BME280;37380;45.186;9.792;2023-04-01T06:49:28;100078.56;;;12.26;100.00
51297;BME280;37380;45.186;9.792;2023-04-01T06:55:46;100082.69;;;12.65;100.00
51297;BME280;37380;45.186;9.792;2023-04-01T06:59:05;100104.88;;;12.32;100.00
51297;BME280;37380;45.186;9.792;2023-04-01T07:01:47;100051.94;;;12.53;100.00
51297;BME280;37380;45.186;9.792;2023-04-01T07:04:26;100095.31;;;12.34;100.00
51297;BME280;37380;45.186;9.792;2023-04-01T07:10:04;100076.44;;;12.54;100.00
51297;BME280;37380;45.186;9.792;2023-04-01T07:13:13;100097.88;;;12.31;100.00
51297;BME280;37380;45.186;9.792;2023-04-01T07:15:43;100073.81;;;13.78;99.87
51297;BME280;37380;45.186;9.792;2023-04-01T07:18:45;100071.16;;;14.58;95.51
51297;BME280;37380;45.186;9.792;2023-04-01T07:22:21;100079.34;;;14.99;91.69
51297;BME280;37380;45.186;9.792;2023-04-01T07:24:45;100073.03;;;14.76;94.12
51297;BME280;37380;45.186;9.792;2023-04-01T07:27:14;100080.97;;;14.82;90.92
51297;BME280;37380;45.186;9.792;2023-04-01T07:29:43;100067.97;;;15.06;93.43
51297;BME280;37380;45.186;9.792;2023-04-01T07:35:02;100077.47;;;13.93;87.13
51297;BME280;37380;45.186;9.792;2023-04-01T07:42:58;100092.91;;;13.62;89.67
51297;BME280;37380;45.186;9.792;2023-04-01T07:53:42;100107.34;;;13.31;87.31
51297;BME280;37380;45.186;9.792;2023-04-01T08:06:19;100077.84;;;14.26;91.46
51297;BME280;37380;45.186;9.792;2023-04-01T08:08:59;100107.72;;;14.38;81.09
51297;BME280;37380;45.186;9.792;2023-04-01T08:12:04;100104.63;;;14.80;84.70
51297;BME280;37380;45.186;9.792;2023-04-01T08:15:25;100093.44;;;15.10;81.18
51297;BME280;37380;45.186;9.792;2023-04-01T08:20:39;100100.31;;;14.91;77.93
51297;BME280;37380;45.186;9.792;2023-04-01T08:23:19;100021.25;;;14.68;74.68
51297;BME280;37380;45.186;9.792;2023-04-01T08:26:49;100089.94;;;15.07;75.00
51297;BME280;37380;45.186;9.792;2023-04-01T08:29:22;100081.41;;;15.58;74.60
51297;BME280;37380;45.186;9.792;2023-04-01T08:32:03;100064.38;;;14.92;72.77
51297;BME280;37380;45.186;9.792;2023-04-01T08:34:40;100090.91;;;15.26;75.45
51297;BME280;37380;45.186;9.792;2023-04-01T08:37:25;100086.47;;;15.15;71.95
51297;BME280;37380;45.186;9.792;2023-04-01T08:40:00;100024.19;;;15.21;70.77
51297;BME280;37380;45.186;9.792;2023-04-01T08:48:44;100100.03;;;16.04;70.76
51297;BME280;37380;45.186;9.792;2023-04-01T09:12:02;100107.09;;;17.47;64.38
51297;BME280;37380;45.186;9.792;2023-04-01T09:32:49;100114.94;;;17.71;55.35
51297;BME280;37380;45.186;9.792;2023-04-01T09:38:39;100101.97;;;18.82;62.18
51297;BME280;37380;45.186;9.792;2023-04-01T09:49:54;100098.03;;;18.12;48.87
51297;BME280;37380;45.186;9.792;2023-04-01T09:56:26;100091.59;;;18.51;48.99
51297;BME280;37380;45.186;9.792;2023-04-01T09:59:40;100094.00;;;17.01;51.39
51297;BME280;37380;45.186;9.792;2023-04-01T10:02:51;100054.66;;;18.38;59.85
51297;BME280;37380;45.186;9.792;2023-04-01T10:05:37;100099.94;;;17.73;47.95
51297;BME280;37380;45.186;9.792;2023-04-01T10:14:06;100089.84;;;18.53;48.22
51297;BME280;37380;45.186;9.792;2023-04-01T10:33:29;100069.56;;;18.49;44.99
51297;BME280;37380;45.186;9.792;2023-04-01T10:54:11;100065.03;;;19.53;40.37
51297;BME280;37380;45.186;9.792;2023-04-01T11:01:27;100053.75;;;19.36;43.67
51297;BME280;37380;45.186;9.792;2023-04-01T11:23:07;100054.03;;;19.87;37.60
51297;BME280;37380;45.186;9.792;2023-04-01T11:26:12;99995.50;;;19.34;33.32
51297;BME280;37380;45.186;9.792;2023-04-01T11:46:42;100041.34;;;20.10;28.40
51297;BME280;37380;45.186;9.792;2023-04-01T11:49:32;100042.69;;;20.36;33.46
51297;BME280;37380;45.186;9.792;2023-04-01T12:10:26;100018.41;;;21.09;28.82
51297;BME280;37380;45.186;9.792;2023-04-01T12:21:48;100008.50;;;20.72;26.93
51297;BME280;37380;45.186;9.792;2023-04-01T12:38:11;100007.50;;;20.25;26.06
51297;BME280;37380;45.186;9.792;2023-04-01T12:41:10;99993.16;;;19.79;24.65
51297;BME280;37380;45.186;9.792;2023-04-01T12:55:41;99989.28;;;20.57;24.24
51297;BME280;37380;45.186;9.792;2023-04-01T12:59:06;99985.53;;;20.15;25.07
51297;BME280;37380;45.186;9.792;2023-04-01T13:16:58;99892.44;;;20.78;26.29
51297;BME280;37380;45.186;9.792;2023-04-01T13:20:02;99940.59;;;20.58;24.80
51297;BME280;37380;45.186;9.792;2023-04-01T13:22:51;99959.38;;;20.48;24.84
51297;BME280;37380;45.186;9.792;2023-04-01T13:45:46;99892.88;;;20.07;25.31
51297;BME280;37380;45.186;9.792;2023-04-01T14:11:05;99908.22;;;21.30;26.96
51297;BME280;37380;45.186;9.792;2023-04-01T14:20:25;99838.94;;;20.98;27.98
51297;BME280;37380;45.186;9.792;2023-04-01T14:31:26;99885.06;;;20.93;26.37
51297;BME280;37380;45.186;9.792;2023-04-01T14:34:21;99883.50;;;20.83;29.62
51297;BME280;37380;45.186;9.792;2023-04-01T14:48:50;99856.03;;;20.85;25.76
51297;BME280;37380;45.186;9.792;2023-04-01T14:51:52;99852.63;;;20.33;25.29
51297;BME280;37380;45.186;9.792;2023-04-01T14:54:37;99835.41;;;20.08;26.47
51297;BME280;37380;45.186;9.792;2023-04-01T14:57:40;99852.91;;;20.17;26.17
51297;BME280;37380;45.186;9.792;2023-04-01T15:15:15;99837.34;;;19.97;26.38
51297;BME280;37380;45.186;9.792;2023-04-01T15:23:31;99836.31;;;20.05;26.81
51297;BME280;37380;45.186;9.792;2023-04-01T15:31:30;99822.50;;;19.88;26.95
51297;BME280;37380;45.186;9.792;2023-04-01T15:36:57;99750.94;;;19.34;27.36
51297;BME280;37380;45.186;9.792;2023-04-01T15:48:40;99808.38;;;19.86;27.56
51297;BME280;37380;45.186;9.792;2023-04-01T16:01:44;99820.81;;;19.84;27.64
51297;BME280;37380;45.186;9.792;2023-04-01T16:04:58;99817.47;;;19.73;28.04
51297;BME280;37380;45.186;9.792;2023-04-01T16:07:47;99797.25;;;19.64;27.59
51297;BME280;37380;45.186;9.792;2023-04-01T16:17:25;99808.19;;;19.42;28.33
51297;BME280;37380;45.186;9.792;2023-04-01T16:20:25;99807.31;;;19.42;28.87
51297;BME280;37380;45.186;9.792;2023-04-01T16:28:54;99811.22;;;19.16;29.18
51297;BME280;37380;45.186;9.792;2023-04-01T16:31:42;99799.81;;;19.14;29.07
51297;BME280;37380;45.186;9.792;2023-04-01T16:34:17;99800.78;;;19.07;29.87
51297;BME280;37380;45.186;9.792;2023-04-01T16:36:55;99720.34;;;18.54;29.63
51297;BME280;37380;45.186;9.792;2023-04-01T16:39:44;99752.69;;;18.77;30.27
51297;BME280;37380;45.186;9.792;2023-04-01T16:45:37;99792.09;;;18.96;29.03
51297;BME280;37380;45.186;9.792;2023-04-01T16:51:33;99800.06;;;18.96;30.66
51297;BME280;37380;45.186;9.792;2023-04-01T17:00:53;99804.09;;;18.57;30.51
51297;BME280;37380;45.186;9.792;2023-04-01T17:03:43;99805.91;;;18.53;31.03
51297;BME280;37380;45.186;9.792;2023-04-01T17:06:17;99801.34;;;18.63;29.82
51297;BME280;37380;45.186;9.792;2023-04-01T17:14:50;99807.00;;;18.33;31.43
51297;BME280;37380;45.186;9.792;2023-04-01T17:17:45;99803.69;;;18.12;32.33
51297;BME280;37380;45.186;9.792;2023-04-01T17:21:00;99798.72;;;17.79;32.41
51297;BME280;37380;45.186;9.792;2023-04-01T17:26:46;99803.44;;;17.39;36.51
51297;BME280;37380;45.186;9.792;2023-04-01T17:29:29;99809.75;;;17.18;37.30
51297;BME280;37380;45.186;9.792;2023-04-01T17:35:35;99736.31;;;16.38;39.96
51297;BME280;37380;45.186;9.792;2023-04-01T17:38:32;99796.91;;;16.44;40.22
51297;BME280;37380;45.186;9.792;2023-04-01T17:43:40;99817.19;;;16.27;41.68
51297;BME280;37380;45.186;9.792;2023-04-01T17:52:32;99815.53;;;15.71;45.34
51297;BME280;37380;45.186;9.792;2023-04-01T18:20:46;99820.34;;;14.30;50.26
51297;BME280;37380;45.186;9.792;2023-04-01T18:24:12;99821.16;;;14.19;52.12
51297;BME280;37380;45.186;9.792;2023-04-01T18:26:30;99799.13;;;13.96;52.29
51297;BME280;37380;45.186;9.792;2023-04-01T18:29:12;99831.59;;;14.07;53.92
51297;BME280;37380;45.186;9.792;2023-04-01T18:32:35;99828.88;;;13.92;53.93
51297;BME280;37380;45.186;9.792;2023-04-01T18:35:52;99829.72;;;13.86;53.57
51297;BME280;37380;45.186;9.792;2023-04-01T18:38:49;99833.22;;;13.85;53.88
51297;BME280;37380;45.186;9.792;2023-04-01T18:41:35;99835.78;;;13.79;52.67
51297;BME280;37380;45.186;9.792;2023-04-01T18:44:19;99812.78;;;13.49;52.31
51297;BME280;37380;45.186;9.792;2023-04-01T18:52:39;99831.22;;;13.53;53.76
51297;BME280;37380;45.186;9.792;2023-04-01T18:58:32;99834.63;;;13.46;54.81
51297;BME280;37380;45.186;9.792;2023-04-01T19:01:17;99780.88;;;13.06;54.26
51297;BME280;37380;45.186;9.792;2023-04-01T19:04:11;99847.78;;;13.48;55.38
51297;BME280;37380;45.186;9.792;2023-04-01T19:09:52;99802.78;;;13.09;55.00
51297;BME280;37380;45.186;9.792;2023-04-01T19:13:15;99838.03;;;13.38;55.00
51297;BME280;37380;45.186;9.792;2023-04-01T19:21:19;99763.94;;;12.73;58.84
51297;BME280;37380;45.186;9.792;2023-04-01T19:32:49;99853.31;;;12.95;59.85
51297;BME280;37380;45.186;9.792;2023-04-01T19:47:05;99842.97;;;13.08;58.79
51297;BME280;37380;45.186;9.792;2023-04-01T19:52:33;99789.63;;;12.30;61.52
51297;BME280;37380;45.186;9.792;2023-04-01T19:59:13;99878.53;;;12.83;61.07
51297;BME280;37380;45.186;9.792;2023-04-01T20:04:28;99831.88;;;12.55;61.85
51297;BME280;37380;45.186;9.792;2023-04-01T20:10:21;99879.25;;;12.73;62.76
51297;BME280;37380;45.186;9.792;2023-04-01T20:13:04;99865.03;;;12.51;62.65
51297;BME280;37380;45.186;9.792;2023-04-01T20:15:36;99775.97;;;11.89;63.44
51297;BME280;37380;45.186;9.792;2023-04-01T20:18:24;99834.06;;;12.24;60.42
51297;BME280;37380;45.186;9.792;2023-04-01T20:20:56;99875.50;;;12.51;60.49
51297;BME280;37380;45.186;9.792;2023-04-01T20:23:51;99886.03;;;12.56;61.63
51297;BME280;37380;45.186;9.792;2023-04-01T20:26:23;99828.78;;;12.21;61.49
51297;BME280;37380;45.186;9.792;2023-04-01T20:35:19;99844.41;;;12.15;62.62
51297;BME280;37380;45.186;9.792;2023-04-01T20:41:16;99877.47;;;12.07;63.48
51297;BME280;37380;45.186;9.792;2023-04-01T20:47:44;99888.75;;;12.04;62.56
51297;BME280;37380;45.186;9.792;2023-04-01T20:50:32;99858.25;;;12.05;61.07
51297;BME280;37380;45.186;9.792;2023-04-01T20:53:15;99892.72;;;12.35;62.12
51297;BME280;37380;45.186;9.792;2023-04-01T21:07:50;99864.81;;;12.37;58.11
51297;BME280;37380;45.186;9.792;2023-04-01T21:16:02;99865.22;;;12.06;61.25
51297;BME280;37380;45.186;9.792;2023-04-01T21:40:13;99938.41;;;11.96;63.35
51297;BME280;37380;45.186;9.792;2023-04-01T21:45:32;99939.56;;;11.65;65.92
51297;BME280;37380;45.186;9.792;2023-04-01T21:57:59;99937.22;;;11.32;65.96
51297;BME280;37380;45.186;9.792;2023-04-01T22:09:56;99955.19;;;11.61;66.79
51297;BME280;37380;45.186;9.792;2023-04-01T22:20:37;99874.50;;;11.35;63.96
51297;BME280;37380;45.186;9.792;2023-04-01T22:28:29;99950.44;;;11.87;65.01
51297;BME280;37380;45.186;9.792;2023-04-01T22:31:03;99870.88;;;11.28;64.36
51297;BME280;37380;45.186;9.792;2023-04-01T22:42:42;99918.72;;;11.23;66.38
51297;BME280;37380;45.186;9.792;2023-04-01T22:50:22;99971.56;;;11.50;67.54
51297;BME280;37380;45.186;9.792;2023-04-01T22:53:02;99973.72;;;11.26;72.53
51297;BME280;37380;45.186;9.792;2023-04-01T22:56:15;99923.91;;;10.79;73.27
51297;BME280;37380;45.186;9.792;2023-04-01T22:59:04;99888.88;;;10.28;76.29
51297;BME280;37380;45.186;9.792;2023-04-01T23:01:40;99930.03;;;10.40;76.35
51297;BME280;37380;45.186;9.792;2023-04-01T23:04:16;99962.53;;;10.53;77.46
51297;BME280;37380;45.186;9.792;2023-04-01T23:06:49;99958.91;;;10.46;77.11
51297;BME280;37380;45.186;9.792;2023-04-01T23:09:20;99926.09;;;10.21;79.45
51297;BME280;37380;45.186;9.792;2023-04-01T23:12:13;99958.56;;;10.32;80.54
51297;BME280;37380;45.186;9.792;2023-04-01T23:14:58;99958.75;;;10.40;80.99
51297;BME280;37380;45.186;9.792;2023-04-01T23:22:49;99955.56;;;10.15;91.08
51297;BME280;37380;45.186;9.792;2023-04-01T23:26:02;99905.72;;;9.71;93.09
51297;BME280;37380;45.186;9.792;2023-04-01T23:28:51;99969.13;;;10.02;93.41
51297;BME280;37380;45.186;9.792;2023-04-01T23:31:32;99969.44;;;10.14;92.89
51297;BME280;37380;45.186;9.792;2023-04-01T23:34:22;99937.81;;;10.02;92.13
51297;BME280;37380;45.186;9.792;2023-04-01T23:37:00;99943.09;;;10.05;90.56
51297;BME280;37380;45.186;9.792;2023-04-01T23:42:04;99897.81;;;9.67;92.30
51297;BME280;37380;45.186;9.792;2023-04-01T23:44:34;99969.28;;;10.08;91.13
51297;BME280;37380;45.186;9.792;2023-04-01T23:47:03;99958.63;;;9.99;88.70
51297;BME280;37380;45.186;9.792;2023-04-01T23:49:37;99959.34;;;9.93;89.29
51297;BME280;37380;45.186;9.792;2023-04-01T23:52:21;99981.25;;;10.00;89.93
51297;BME280;37380;45.186;9.792;2023-04-01T23:54:56;99982.19;;;10.02;88.50
